Time;durP1;ratioP1;P1;durP2;ratioP2;P2;SDS_P1;SDS_P2;PMS_P1;PMS_P2;Temp;Humidity;BMP_temperature;BMP_pressure;BME280_temperature;BME280_humidity;BME280_pressure;Samples;Min_cycle;Max_cycle;Signal;HPM_P1;HPM_P2
2022/06/27 00:00:09;;;;;;;3.92;2.13;;;;;;;17.85;82.53;101240.56;5059925;28;20044;-72
2022/06/27 00:02:41;;;;;;;7.00;2.45;;;;;;;17.84;82.81;101238.94;5060121;28;20024;-73
2022/06/27 00:05:07;;;;;;;4.75;2.50;;;;;;;17.84;82.36;101238.94;5061890;28;20035;-74
2022/06/27 00:07:32;;;;;;;5.95;2.90;;;;;;;17.87;82.06;101253.47;5048786;28;21584;-72
2022/06/27 00:09:58;;;;;;;4.03;2.22;;;;;;;17.86;82.22;101249.25;5066358;28;20028;-74
2022/06/27 00:12:23;;;;;;;4.50;2.70;;;;;;;17.83;83.14;101253.03;5062998;28;20059;-74
2022/06/27 00:14:49;;;;;;;4.45;2.65;;;;;;;17.78;83.84;101246.75;5055205;28;20044;-73
2022/06/27 00:17:15;;;;;;;5.15;2.38;;;;;;;17.73;84.44;101249.16;5060752;28;20115;-73
2022/06/27 00:19:40;;;;;;;4.63;2.40;;;;;;;17.70;85.08;101251.13;5059670;28;20044;-74
2022/06/27 00:22:06;;;;;;;7.57;3.47;;;;;;;17.59;85.50;101253.47;5065021;28;20109;-74
2022/06/27 00:24:32;;;;;;;7.88;3.35;;;;;;;17.55;85.78;101250.41;5043287;28;20024;-73
2022/06/27 00:26:58;;;;;;;6.80;2.92;;;;;;;17.51;85.63;101255.22;5042446;28;20430;-73
2022/06/27 00:29:23;;;;;;;9.25;3.70;;;;;;;17.54;84.91;101261.09;5043259;28;20036;-74
2022/06/27 00:31:49;;;;;;;8.68;4.60;;;;;;;17.50;84.39;101266.75;5043533;28;20028;-73
2022/06/27 00:34:15;;;;;;;8.10;4.40;;;;;;;17.49;84.57;101265.09;5042593;28;20040;-73
2022/06/27 00:36:40;;;;;;;12.30;4.90;;;;;;;17.46;84.36;101264.66;5043611;28;20047;-73
2022/06/27 00:39:06;;;;;;;6.38;3.72;;;;;;;17.44;84.40;101270.13;5042660;28;20024;-73
2022/06/27 00:41:31;;;;;;;7.03;3.92;;;;;;;17.47;84.47;101271.56;5043311;28;20458;-72
2022/06/27 00:43:57;;;;;;;6.00;3.95;;;;;;;17.46;84.59;101260.25;5060594;28;20043;-74
2022/06/27 00:46:22;;;;;;;6.15;4.25;;;;;;;17.47;84.73;101255.81;5060896;28;20039;-73
2022/06/27 00:48:48;;;;;;;9.07;4.57;;;;;;;17.50;84.74;101269.34;5042651;28;20403;-74
2022/06/27 00:51:14;;;;;;;7.18;4.18;;;;;;;17.51;84.68;101270.97;5039815;28;20040;-74
2022/06/27 00:53:40;;;;;;;7.57;4.40;;;;;;;17.54;84.71;101280.28;5041039;28;20047;-74
2022/06/27 00:56:06;;;;;;;7.30;4.65;;;;;;;17.54;84.86;101282.06;5059003;28;20032;-74
2022/06/27 00:58:33;;;;;;;7.57;4.22;;;;;;;17.52;85.10;101284.91;5042397;28;20059;-73
2022/06/27 01:00:58;;;;;;;10.77;4.05;;;;;;;17.52;84.91;101287.53;5044567;28;20082;-72
2022/06/27 01:03:24;;;;;;;6.50;4.25;;;;;;;17.54;85.12;101290.75;5037725;28;20437;-74
2022/06/27 01:05:53;;;;;;;6.15;4.55;;;;;;;17.57;84.39;101279.88;5042793;28;20064;-74
2022/06/27 01:08:19;;;;;;;6.32;3.35;;;;;;;17.59;84.36;101277.88;5043228;28;20500;-74
2022/06/27 01:10:46;;;;;;;6.47;4.32;;;;;;;17.60;84.67;101274.25;5041195;28;20034;-73
2022/06/27 01:13:11;;;;;;;7.78;4.47;;;;;;;17.61;84.74;101272.44;5060747;28;20044;-73
2022/06/27 01:15:37;;;;;;;12.80;5.22;;;;;;;17.60;85.09;101269.03;5059758;28;20043;-74
2022/06/27 01:18:03;;;;;;;6.80;3.65;;;;;;;17.57;85.51;101261.53;5059497;28;20037;-73
2022/06/27 01:20:28;;;;;;;8.73;4.38;;;;;;;17.58;85.79;101265.78;5061746;28;20527;-74
2022/06/27 01:22:54;;;;;;;8.57;4.30;;;;;;;17.56;86.12;101267.78;5043575;28;20044;-74
2022/06/27 01:25:24;;;;;;;8.05;4.43;;;;;;;17.56;86.19;101265.16;5044374;28;20687;-73
2022/06/27 01:27:51;;;;;;;8.23;5.38;;;;;;;17.56;86.40;101256.50;5058493;28;20113;-73
2022/06/27 01:30:19;;;;;;;6.82;4.50;;;;;;;17.53;86.53;101252.44;5038284;28;20046;-72
2022/06/27 01:32:45;;;;;;;7.88;4.88;;;;;;;17.49;86.50;101262.47;5043401;28;20078;-73
2022/06/27 01:35:11;;;;;;;11.75;5.65;;;;;;;17.54;86.59;101261.94;5039730;28;20028;-73
2022/06/27 01:37:36;;;;;;;8.88;5.63;;;;;;;17.51;86.82;101254.44;5041215;28;20036;-74
2022/06/27 01:40:02;;;;;;;10.88;5.88;;;;;;;17.46;87.17;101234.03;5041447;28;20037;-73
2022/06/27 01:42:31;;;;;;;9.80;5.80;;;;;;;17.41;87.06;101235.63;5042349;28;20397;-73
2022/06/27 01:44:57;;;;;;;11.32;6.20;;;;;;;17.40;87.03;101237.41;5042555;28;20025;-73
2022/06/27 01:47:23;;;;;;;11.05;5.65;;;;;;;17.41;87.03;101230.38;5043954;28;20397;-73
2022/06/27 01:49:55;;;;;;;12.40;6.72;;;;;;;17.45;86.78;101229.78;5043898;28;20033;-73
2022/06/27 01:52:24;;;;;;;9.32;5.78;;;;;;;17.36;87.31;101217.03;5041341;28;20532;-74
2022/06/27 01:54:50;;;;;;;10.02;5.47;;;;;;;17.36;87.56;101225.69;5024310;28;20033;-74
2022/06/27 01:57:18;;;;;;;10.60;6.45;;;;;;;17.37;87.85;101223.91;5061090;28;20025;-74
2022/06/27 01:59:48;;;;;;;11.18;6.78;;;;;;;17.39;87.74;101221.91;5041110;28;20094;-72
2022/06/27 02:02:14;;;;;;;12.50;7.20;;;;;;;17.42;87.92;101224.94;5040877;28;20032;-74
2022/06/27 02:04:42;;;;;;;11.95;6.00;;;;;;;17.39;88.11;101227.13;5023662;28;20040;-75
2022/06/27 02:07:08;;;;;;;13.30;7.85;;;;;;;17.40;88.22;101218.25;5060620;28;20041;-74
2022/06/27 02:09:33;;;;;;;10.43;6.53;;;;;;;17.38;88.73;101205.34;5024129;28;20032;-73
2022/06/27 02:12:19;;;;;;;11.05;7.20;;;;;;;17.42;88.75;101211.00;5043558;28;20115;-73
2022/06/27 02:14:53;;;;;;;9.68;7.13;;;;;;;17.43;88.76;101197.72;5043408;28;20036;-74
2022/06/27 02:17:28;;;;;;;13.73;6.45;;;;;;;17.47;88.73;101198.16;5044196;28;20451;-73
2022/06/27 02:19:54;;;;;;;13.15;5.95;;;;;;;17.47;88.93;101196.31;5044465;28;20039;-74
2022/06/27 02:22:20;;;;;;;14.27;7.38;;;;;;;17.48;88.90;101194.53;5047315;28;20028;-73
2022/06/27 02:24:46;;;;;;;10.55;8.32;;;;;;;17.50;89.13;101184.66;5044296;28;20027;-73
2022/06/27 02:27:12;;;;;;;17.48;8.20;;;;;;;17.54;89.88;101192.94;5044511;28;20575;-74
2022/06/27 02:29:38;;;;;;;9.60;8.02;;;;;;;17.53;89.90;101189.50;5044663;28;20530;-74
2022/06/27 02:32:05;;;;;;;13.63;7.10;;;;;;;17.47;90.07;101185.84;5044923;28;20035;-72
2022/06/27 02:34:34;;;;;;;12.95;7.22;;;;;;;17.49;90.28;101185.66;5064719;28;20059;-73
2022/06/27 02:37:02;;;;;;;9.82;6.32;;;;;;;17.44;90.38;101188.03;5043527;28;20728;-74
2022/06/27 02:39:33;;;;;;;12.52;5.85;;;;;;;17.41;90.38;101172.72;5041971;28;20452;-74
2022/06/27 02:42:02;;;;;;;12.25;6.78;;;;;;;17.37;90.30;101171.47;5044342;28;22450;-74
2022/06/27 02:44:28;;;;;;;10.52;6.65;;;;;;;17.36;90.39;101157.53;5043848;28;20098;-74
2022/06/27 02:46:57;;;;;;;13.98;8.25;;;;;;;17.39;90.46;101156.38;5031153;28;20028;-74
2022/06/27 02:49:23;;;;;;;13.80;7.80;;;;;;;17.34;90.49;101148.25;5043834;28;20516;-73
2022/06/27 02:52:00;;;;;;;16.45;9.68;;;;;;;17.24;91.10;101154.66;5041866;28;20055;-74
2022/06/27 02:54:39;;;;;;;11.00;9.13;;;;;;;17.22;91.56;101145.38;5043320;28;20085;-74
2022/06/27 02:57:44;;;;;;;11.82;8.02;;;;;;;17.23;91.72;101150.41;5046702;28;20362;-74
2022/06/27 03:00:11;;;;;;;12.10;7.97;;;;;;;17.20;91.80;101135.09;5043266;28;20053;-75
2022/06/27 03:02:38;;;;;;;10.88;7.68;;;;;;;17.23;91.55;101137.31;5045094;28;20032;-74
2022/06/27 03:05:23;;;;;;;13.02;6.40;;;;;;;17.27;91.58;101141.19;5046790;28;20032;-72
2022/06/27 03:07:51;;;;;;;15.30;8.38;;;;;;;17.31;91.50;101141.59;5047159;28;20028;-75
2022/06/27 03:10:16;;;;;;;12.57;7.32;;;;;;;17.30;91.16;101124.25;5043433;28;20029;-74
2022/06/27 03:12:45;;;;;;;10.23;6.80;;;;;;;17.32;90.94;101120.44;5042108;28;20131;-74
2022/06/27 03:15:11;;;;;;;9.10;6.75;;;;;;;17.34;90.97;101130.72;5043154;28;20060;-74
2022/06/27 03:17:36;;;;;;;10.45;7.10;;;;;;;17.36;91.01;101133.97;5044188;28;20036;-73
2022/06/27 03:20:20;;;;;;;14.85;7.85;;;;;;;17.38;90.71;101121.47;5061520;28;20477;-73
2022/06/27 03:23:15;;;;;;;9.40;6.85;;;;;;;17.38;90.34;101108.34;5050255;28;20036;-75
2022/06/27 03:25:45;;;;;;;12.27;6.63;;;;;;;17.38;90.49;101128.53;5062060;28;20780;-74
2022/06/27 03:28:11;;;;;;;11.15;6.47;;;;;;;17.36;90.60;101127.91;5047500;28;20036;-74
2022/06/27 03:30:37;;;;;;;9.40;6.22;;;;;;;17.34;90.67;101138.59;5046883;28;20036;-73
2022/06/27 03:33:03;;;;;;;9.05;6.32;;;;;;;17.35;90.33;101139.38;5045889;28;20028;-73
2022/06/27 03:35:35;;;;;;;10.90;7.17;;;;;;;17.38;90.09;101147.69;5026936;28;20036;-73
2022/06/27 03:38:00;;;;;;;11.63;7.03;;;;;;;17.38;89.71;101136.38;5046012;28;21263;-74
2022/06/27 03:40:27;;;;;;;9.32;6.63;;;;;;;17.39;89.54;101143.25;5041941;28;20389;-74
2022/06/27 03:42:54;;;;;;;13.18;7.07;;;;;;;17.36;89.25;101146.25;5043244;28;20029;-74
2022/06/27 03:45:19;;;;;;;12.20;7.10;;;;;;;17.36;89.10;101156.75;5041670;28;20292;-74
2022/06/27 03:47:48;;;;;;;7.97;5.63;;;;;;;17.35;89.14;101161.19;5044153;28;20036;-74
2022/06/27 03:50:33;;;;;;;7.18;5.78;;;;;;;17.37;88.33;101163.63;5048080;28;20055;-74
2022/06/27 03:52:59;;;;;;;9.43;5.47;;;;;;;17.39;87.89;101157.16;5061777;28;20032;-74
2022/06/27 03:55:25;;;;;;;7.40;5.13;;;;;;;17.41;87.85;101156.97;5043160;28;20024;-74
2022/06/27 03:57:57;;;;;;;6.80;5.05;;;;;;;17.44;87.87;101160.03;5040809;28;20043;-74
2022/06/27 04:00:32;;;;;;;8.98;4.70;;;;;;;17.45;87.45;101164.25;5057558;28;20447;-74
2022/06/27 04:03:00;;;;;;;9.63;4.90;;;;;;;17.45;87.68;101161.63;5044807;28;20576;-73
2022/06/27 04:05:34;;;;;;;7.95;4.72;;;;;;;17.47;88.19;101153.59;5044355;28;20266;-74
2022/06/27 04:08:00;;;;;;;7.68;4.38;;;;;;;17.47;88.72;101150.97;5042916;28;20036;-74
2022/06/27 04:10:27;;;;;;;7.60;5.43;;;;;;;17.48;88.47;101153.41;5041163;28;20040;-73
2022/06/27 04:12:53;;;;;;;6.65;4.72;;;;;;;17.49;88.59;101151.56;5043198;28;20028;-74
2022/06/27 04:15:39;;;;;;;9.68;5.13;;;;;;;17.49;88.36;101157.63;5023856;28;20437;-72
2022/06/27 04:18:23;;;;;;;11.30;6.45;;;;;;;17.49;88.58;101159.44;5059342;28;20116;-74
2022/06/27 04:20:58;;;;;;;5.70;5.00;;;;;;;17.48;88.59;101171.75;5061619;28;20107;-74
2022/06/27 04:23:33;;;;;;;6.88;4.40;;;;;;;17.50;88.32;101171.56;5044767;28;20810;-74
2022/06/27 04:26:11;;;;;;;18.48;6.35;;;;;;;17.51;88.49;101167.91;5066695;28;20078;-73
2022/06/27 04:28:36;;;;;;;11.40;5.03;;;;;;;17.51;89.07;101168.72;5061463;28;20028;-74
2022/06/27 04:31:02;;;;;;;6.70;4.60;;;;;;;17.51;89.30;101158.25;5042879;28;20544;-74
2022/06/27 04:33:29;;;;;;;8.60;4.88;;;;;;;17.50;89.12;101140.91;5042487;28;20126;-74
2022/06/27 04:35:54;;;;;;;9.50;4.72;;;;;;;17.51;89.84;101142.50;5041573;28;20383;-74
2022/06/27 04:38:20;;;;;;;10.85;5.72;;;;;;;17.50;91.47;101155.84;5057654;28;20481;-74
2022/06/27 04:41:20;;;;;;;10.45;6.03;;;;;;;17.41;92.48;101173.50;5007014;28;20051;-74
2022/06/27 04:43:47;;;;;;;10.70;5.28;;;;;;;17.36;93.12;101162.78;5041327;28;20031;-74
2022/06/27 04:46:13;;;;;;;9.23;4.75;;;;;;;17.37;93.11;101166.25;5044740;28;20230;-73
2022/06/27 04:49:08;;;;;;;6.13;4.20;;;;;;;17.39;92.67;101170.28;5047028;28;20086;-74
2022/06/27 04:51:35;;;;;;;7.03;5.10;;;;;;;17.40;92.03;101171.88;5043492;28;20056;-74
2022/06/27 04:54:01;;;;;;;7.10;4.38;;;;;;;17.40;92.36;101166.63;5040952;28;20447;-74
2022/06/27 04:56:27;;;;;;;7.25;5.15;;;;;;;17.43;92.26;101154.97;5045437;28;20271;-73
2022/06/27 04:58:53;;;;;;;9.30;5.68;;;;;;;17.41;91.98;101151.75;5042090;28;20618;-74
2022/06/27 05:01:19;;;;;;;10.20;6.68;;;;;;;17.42;91.64;101154.19;5045899;28;20411;-74
2022/06/27 05:03:47;;;;;;;13.05;6.28;;;;;;;17.44;91.58;101140.84;5058695;28;20039;-74
2022/06/27 05:06:25;;;;;;;9.40;6.43;;;;;;;17.38;91.78;101126.72;5043592;28;20546;-74
2022/06/27 05:08:50;;;;;;;10.02;6.28;;;;;;;17.42;91.78;101124.50;5041913;28;20032;-74
2022/06/27 05:11:16;;;;;;;7.97;5.82;;;;;;;17.47;91.66;101109.81;5027527;28;20095;-74
2022/06/27 05:13:42;;;;;;;9.82;6.25;;;;;;;17.52;91.72;101106.63;5042998;28;20028;-74
2022/06/27 05:16:18;;;;;;;11.85;7.20;;;;;;;17.55;91.49;101106.22;5041891;28;20017;-74
2022/06/27 05:18:44;;;;;;;10.65;8.25;;;;;;;17.57;91.39;101111.28;5043058;28;20036;-74
2022/06/27 05:21:10;;;;;;;8.25;6.25;;;;;;;17.63;91.61;101097.38;5046129;28;20043;-73
2022/06/27 05:23:37;;;;;;;12.18;7.43;;;;;;;17.70;91.58;101091.16;5064293;28;20675;-74
2022/06/27 05:26:07;;;;;;;11.98;8.07;;;;;;;17.77;91.32;101098.28;5058775;28;20155;-74
2022/06/27 05:28:33;;;;;;;12.35;8.75;;;;;;;17.88;89.87;101090.66;5040377;28;20021;-73
2022/06/27 05:30:59;;;;;;;11.38;7.38;;;;;;;17.93;88.83;101073.53;5037501;28;20052;-73
2022/06/27 05:33:25;;;;;;;10.98;6.90;;;;;;;17.89;88.47;101054.75;5027118;28;20111;-73
2022/06/27 05:35:52;;;;;;;11.02;6.55;;;;;;;17.94;88.36;101057.59;5059270;28;20032;-74
2022/06/27 05:38:18;;;;;;;11.10;6.72;;;;;;;18.02;87.97;101075.75;5030828;28;20063;-74
2022/06/27 05:40:45;;;;;;;9.05;5.43;;;;;;;18.06;87.90;101098.00;5039824;28;20033;-72
2022/06/27 05:43:14;;;;;;;8.68;5.45;;;;;;;18.11;87.26;101125.44;5056053;28;20021;-74
2022/06/27 05:45:41;;;;;;;10.70;6.25;;;;;;;18.14;87.30;101143.41;5040371;28;20040;-74
2022/06/27 05:48:25;;;;;;;9.35;5.85;;;;;;;18.12;87.75;101154.13;5064690;28;20048;-75
2022/06/27 05:51:20;;;;;;;9.43;5.75;;;;;;;18.08;88.55;101177.31;5045725;28;20039;-75
2022/06/27 05:53:48;;;;;;;9.30;5.68;;;;;;;18.07;88.76;101178.31;5042561;28;20032;-74
2022/06/27 05:56:14;;;;;;;7.30;5.43;;;;;;;18.06;89.00;101173.25;5045306;28;20432;-74
2022/06/27 05:58:41;;;;;;;8.85;5.03;;;;;;;18.05;89.12;101143.59;5045771;28;20039;-74
2022/06/27 06:01:09;;;;;;;8.20;4.88;;;;;;;18.07;88.51;101119.78;5045060;28;20028;-73
2022/06/27 06:03:36;;;;;;;7.93;5.80;;;;;;;18.08;88.07;101137.13;5059481;28;20062;-74
2022/06/27 06:06:03;;;;;;;11.32;5.00;;;;;;;18.07;88.33;101167.81;5029155;28;20041;-75
2022/06/27 06:08:29;;;;;;;11.77;5.60;;;;;;;18.11;88.53;101185.81;5046187;28;20038;-74
2022/06/27 06:10:55;;;;;;;8.02;5.32;;;;;;;18.13;89.01;101194.28;5059016;28;20523;-75
2022/06/27 06:13:24;;;;;;;8.93;4.85;;;;;;;18.14;89.53;101195.88;5047359;28;20586;-74
2022/06/27 06:15:51;;;;;;;10.82;5.10;;;;;;;18.16;89.92;101215.69;5042342;28;20408;-74
2022/06/27 06:18:17;;;;;;;12.20;5.57;;;;;;;18.17;89.68;101211.25;5044275;28;20390;-75
2022/06/27 06:20:46;;;;;;;9.10;6.47;;;;;;;18.23;89.51;101213.91;5046286;28;20072;-73
2022/06/27 06:23:11;;;;;;;9.63;5.85;;;;;;;18.34;89.06;101198.59;5048549;28;20032;-74
2022/06/27 06:25:38;;;;;;;11.68;6.57;;;;;;;18.43;88.34;101203.47;5042628;28;20021;-75
2022/06/27 06:28:04;;;;;;;11.35;7.53;;;;;;;18.57;86.98;101235.00;5061398;28;20059;-74
2022/06/27 06:30:31;;;;;;;11.10;6.60;;;;;;;18.72;86.27;101263.72;5042280;28;20044;-74
2022/06/27 06:33:02;;;;;;;8.40;5.57;;;;;;;18.72;86.60;101264.53;5045111;28;20032;-74
2022/06/27 06:35:30;;;;;;;9.10;5.38;;;;;;;18.72;86.49;101266.34;5044427;28;20455;-74
2022/06/27 06:37:56;;;;;;;7.35;4.78;;;;;;;18.74;86.55;101285.34;5043812;28;20453;-75
2022/06/27 06:40:21;;;;;;;10.32;5.88;;;;;;;18.77;85.50;101280.50;5044244;28;20497;-74
2022/06/27 06:42:48;;;;;;;10.52;6.63;;;;;;;18.81;84.38;101279.13;5042416;28;20036;-74
2022/06/27 06:45:30;;;;;;;;;;;;;;;18.76;84.30;101264.94;5034456;28;20097;-74
2022/06/27 06:48:19;;;;;;;9.35;4.70;;;;;;;18.80;84.19;101255.66;5050104;28;19998;-74
2022/06/27 06:50:45;;;;;;;13.32;7.75;;;;;;;18.93;83.07;101241.75;5028201;28;20028;-74
2022/06/27 06:53:11;;;;;;;12.70;6.40;;;;;;;18.94;82.53;101223.16;5062124;28;20055;-74
2022/06/27 06:55:36;;;;;;;8.70;5.38;;;;;;;19.01;82.60;101221.34;5062725;28;20036;-72
2022/06/27 06:58:02;;;;;;;6.80;5.20;;;;;;;19.03;81.68;101218.53;5061131;28;20036;-73
2022/06/27 07:00:28;;;;;;;15.20;6.40;;;;;;;19.02;80.81;101203.75;5043123;28;20058;-73
2022/06/27 07:02:55;;;;;;;12.48;6.15;;;;;;;19.07;80.30;101203.97;5063454;28;20033;-74
2022/06/27 07:05:21;;;;;;;8.70;5.45;;;;;;;19.14;79.62;101196.09;5046033;28;20132;-74
2022/06/27 07:07:51;;;;;;;9.27;5.07;;;;;;;19.18;79.46;101192.06;5058678;28;20041;-72
2022/06/27 07:10:17;;;;;;;8.63;5.60;;;;;;;19.23;79.47;101194.84;5062514;28;20036;-73
2022/06/27 07:12:42;;;;;;;14.38;4.78;;;;;;;19.28;79.40;101189.00;5063379;28;20131;-73
2022/06/27 07:15:12;;;;;;;10.40;5.32;;;;;;;19.28;79.70;101187.19;5060883;28;20081;-73
2022/06/27 07:17:49;;;;;;;13.52;6.47;;;;;;;19.31;80.13;101188.59;5041991;28;20031;-74
2022/06/27 07:20:20;;;;;;;8.55;5.00;;;;;;;19.20;79.57;101190.03;5063265;28;20496;-74
2022/06/27 07:22:47;;;;;;;13.13;6.60;;;;;;;19.08;79.37;101189.84;5063674;28;20044;-74
2022/06/27 07:25:13;;;;;;;7.97;5.30;;;;;;;19.08;80.12;101196.91;5066201;28;20028;-74
2022/06/27 07:27:40;;;;;;;7.78;5.07;;;;;;;19.15;80.42;101205.59;5063994;28;20035;-73
2022/06/27 07:30:09;;;;;;;6.70;4.40;;;;;;;19.22;80.54;101190.63;5047393;28;20036;-74
2022/06/27 07:32:36;;;;;;;9.57;4.95;;;;;;;19.28;80.22;101179.28;5061480;28;20047;-74
2022/06/27 07:35:03;;;;;;;14.48;6.40;;;;;;;19.35;80.88;101189.81;5066450;28;20031;-74
2022/06/27 07:37:29;;;;;;;12.05;5.60;;;;;;;19.39;80.73;101207.59;5046034;28;20028;-74
2022/06/27 07:39:54;;;;;;;9.65;5.25;;;;;;;19.44;80.99;101220.94;5045186;28;20042;-74
2022/06/27 07:42:20;;;;;;;12.80;6.40;;;;;;;19.49;80.16;101230.84;5061393;28;20048;-72
2022/06/27 07:44:46;;;;;;;10.18;6.10;;;;;;;19.49;80.21;101230.03;5044736;28;20059;-74
2022/06/27 07:47:11;;;;;;;12.73;6.57;;;;;;;19.50;80.08;101223.78;5044555;28;20028;-74
2022/06/27 07:49:38;;;;;;;13.65;6.78;;;;;;;19.62;79.02;101227.38;5063485;28;20078;-74
2022/06/27 07:52:03;;;;;;;12.85;7.40;;;;;;;19.72;78.96;101234.84;5062567;28;20481;-73
2022/06/27 07:54:29;;;;;;;12.40;7.50;;;;;;;19.74;78.43;101225.78;5043722;28;20047;-74
2022/06/27 07:56:55;;;;;;;13.15;7.32;;;;;;;19.75;78.69;101230.00;5061383;28;20028;-73
2022/06/27 07:59:22;;;;;;;11.27;6.70;;;;;;;19.82;79.07;101243.97;5063199;28;20048;-74
2022/06/27 08:01:48;;;;;;;8.25;5.97;;;;;;;19.78;80.02;101255.91;5039961;28;20327;-74
2022/06/27 08:04:15;;;;;;;11.27;7.25;;;;;;;19.78;78.48;101263.81;5059721;28;20036;-73
2022/06/27 08:06:42;;;;;;;11.02;6.68;;;;;;;19.82;79.31;101272.09;5069826;28;20245;-74
2022/06/27 08:09:09;;;;;;;12.05;8.73;;;;;;;19.76;79.49;101286.06;5040825;28;20037;-75
2022/06/27 08:11:43;;;;;;;14.13;7.18;;;;;;;19.68;80.13;101288.88;5062965;28;20492;-75
2022/06/27 08:14:17;;;;;;;11.98;7.25;;;;;;;19.54;80.62;101293.34;5066992;28;20246;-74
2022/06/27 08:16:45;;;;;;;12.45;6.65;;;;;;;19.52;81.11;101290.91;5045870;28;20032;-72
2022/06/27 08:19:11;;;;;;;17.95;8.10;;;;;;;19.53;80.95;101289.09;5043751;28;21806;-74
2022/06/27 08:21:37;;;;;;;10.88;6.82;;;;;;;19.53;80.92;101284.63;5063880;28;20036;-73
2022/06/27 08:24:07;;;;;;;10.57;7.10;;;;;;;19.73;80.13;101275.97;5046762;28;20508;-74
2022/06/27 08:26:35;;;;;;;9.70;6.32;;;;;;;19.74;80.70;101277.56;5063612;28;20089;-73
2022/06/27 08:29:02;;;;;;;14.95;8.05;;;;;;;19.88;79.43;101283.63;5061213;28;20032;-73
2022/06/27 08:31:32;;;;;;;9.90;6.00;;;;;;;19.89;79.29;101299.22;5044294;28;20069;-74
2022/06/27 08:33:59;;;;;;;10.35;6.68;;;;;;;19.83;79.54;101305.28;5040694;28;20047;-73
2022/06/27 08:36:27;;;;;;;10.00;6.18;;;;;;;19.89;79.69;101301.00;5042745;28;20032;-74
2022/06/27 08:38:53;;;;;;;12.75;6.93;;;;;;;19.96;79.96;101294.72;5061123;28;20060;-74
2022/06/27 08:41:23;;;;;;;13.98;7.80;;;;;;;20.00;79.22;101310.91;5041201;28;20617;-74
2022/06/27 08:43:55;;;;;;;8.98;6.38;;;;;;;19.98;79.29;101315.56;5058740;28;20054;-74
2022/06/27 08:46:22;;;;;;;14.00;7.37;;;;;;;20.00;79.17;101308.28;5026917;28;20028;-72
2022/06/27 08:48:49;;;;;;;14.52;7.15;;;;;;;20.13;78.34;101300.34;5060089;28;20516;-74
2022/06/27 08:51:16;;;;;;;14.07;6.68;;;;;;;20.12;78.45;101325.06;5043817;28;20477;-74
2022/06/27 08:53:44;;;;;;;13.02;7.13;;;;;;;20.16;78.11;101328.09;5064215;28;20412;-73
2022/06/27 08:56:12;;;;;;;14.38;7.95;;;;;;;20.20;78.70;101338.00;5063930;28;20558;-74
2022/06/27 08:58:39;;;;;;;15.50;7.30;;;;;;;20.08;78.98;101352.00;5046143;28;20074;-74
2022/06/27 09:01:06;;;;;;;12.35;6.30;;;;;;;20.01;79.03;101346.75;5062695;28;20499;-74
2022/06/27 09:03:33;;;;;;;9.23;6.50;;;;;;;19.93;78.59;101346.94;5062091;28;20051;-75
2022/06/27 09:06:10;;;;;;;7.95;5.82;;;;;;;19.98;78.63;101342.69;5064607;28;20127;-74
2022/06/27 09:08:54;;;;;;;16.20;6.65;;;;;;;20.18;77.79;101336.59;5041941;28;20044;-74
2022/06/27 09:11:28;;;;;;;14.80;5.60;;;;;;;20.20;77.52;101338.00;5043228;28;20577;-75
2022/06/27 09:13:54;;;;;;;8.38;5.68;;;;;;;20.30;77.21;101316.50;5060541;28;20035;-73
2022/06/27 09:16:19;;;;;;;7.38;4.97;;;;;;;20.40;76.40;101313.44;5059531;28;20029;-74
2022/06/27 09:18:45;;;;;;;7.95;4.20;;;;;;;20.48;76.35;101315.03;5043584;28;20040;-74
2022/06/27 09:21:13;;;;;;;16.33;4.97;;;;;;;20.56;75.88;101320.03;5047281;28;20039;-74
2022/06/27 09:23:47;;;;;;;12.95;5.15;;;;;;;20.71;75.51;101325.06;5058688;28;20044;-73
2022/06/27 09:26:25;;;;;;;11.98;8.02;;;;;;;20.65;75.02;101339.09;5060891;28;20037;-75
2022/06/27 09:28:53;;;;;;;9.63;5.20;;;;;;;20.65;75.13;101333.81;5060475;28;20111;-75
2022/06/27 09:31:25;;;;;;;11.25;6.03;;;;;;;20.52;75.19;101337.28;5042253;28;20645;-74
2022/06/27 09:34:08;;;;;;;10.93;6.07;;;;;;;20.46;74.91;101338.94;5040895;28;20147;-74
2022/06/27 09:36:36;;;;;;;11.25;5.80;;;;;;;20.42;75.19;101328.00;5041949;28;20478;-73
2022/06/27 09:39:04;;;;;;;9.32;5.05;;;;;;;20.40;75.05;101323.97;5057818;28;20095;-73
2022/06/27 09:41:30;;;;;;;14.38;5.72;;;;;;;20.47;74.80;101324.72;5026051;28;20489;-75
2022/06/27 09:44:03;;;;;;;8.98;4.88;;;;;;;20.52;75.32;101327.56;5057257;28;20039;-73
2022/06/27 09:46:35;;;;;;;11.18;6.47;;;;;;;20.60;74.71;101323.91;5058938;28;20047;-74
2022/06/27 09:49:03;;;;;;;11.63;5.97;;;;;;;20.56;73.21;101327.94;5062499;28;20037;-75
2022/06/27 09:51:30;;;;;;;7.65;4.95;;;;;;;20.46;73.26;101332.88;5065890;28;20039;-74
2022/06/27 09:54:00;;;;;;;8.60;4.78;;;;;;;20.36;73.51;101330.66;5056880;28;20033;-73
2022/06/27 09:56:27;;;;;;;11.13;5.43;;;;;;;20.36;73.77;101330.66;5042660;28;20070;-75
2022/06/27 09:58:53;;;;;;;7.70;5.32;;;;;;;20.35;73.61;101324.59;5038272;28;20398;-74
2022/06/27 10:01:20;;;;;;;12.90;7.70;;;;;;;20.30;74.06;101319.13;5060154;28;20606;-74
2022/06/27 10:03:45;;;;;;;12.63;6.47;;;;;;;20.38;73.39;101310.19;5057355;28;20040;-74
2022/06/27 10:06:12;;;;;;;8.20;5.43;;;;;;;20.38;73.98;101308.38;5023976;28;20041;-74
2022/06/27 10:08:46;;;;;;;16.23;6.65;;;;;;;20.42;73.98;101309.56;5041818;28;20036;-75
2022/06/27 10:11:12;;;;;;;16.45;7.38;;;;;;;20.51;74.31;101322.50;5037666;28;20511;-74
2022/06/27 10:13:42;;;;;;;12.18;7.60;;;;;;;20.54;74.04;101325.53;5057117;28;20040;-74
2022/06/27 10:16:15;;;;;;;9.48;5.97;;;;;;;20.43;74.39;101326.97;5059229;28;20040;-74
2022/06/27 10:19:02;;;;;;;15.13;6.70;;;;;;;20.53;75.07;101323.09;5061156;28;20029;-75
2022/06/27 10:21:36;;;;;;;15.85;7.15;;;;;;;20.58;74.50;101323.28;5059069;28;20052;-74
2022/06/27 10:24:26;;;;;;;11.23;6.80;;;;;;;20.68;74.16;101313.13;5059564;28;20128;-74
2022/06/27 10:26:57;;;;;;;11.05;7.60;;;;;;;20.70;73.72;101312.91;5057826;28;20380;-75
2022/06/27 10:29:42;;;;;;;17.05;7.55;;;;;;;20.59;72.95;101307.25;5061813;28;20091;-74
2022/06/27 10:32:41;;;;;;;8.80;7.10;;;;;;;20.71;72.61;101311.91;5042540;28;20062;-74
2022/06/27 10:35:09;;;;;;;13.63;6.88;;;;;;;20.85;71.38;101316.09;5060885;28;20584;-76
2022/06/27 10:37:36;;;;;;;12.88;5.50;;;;;;;20.69;72.31;101319.22;5065588;28;20130;-75
2022/06/27 10:40:20;;;;;;;15.82;7.55;;;;;;;20.86;71.03;101316.88;5060155;28;20509;-72
2022/06/27 10:42:53;;;;;;;9.07;5.70;;;;;;;20.84;69.95;101314.47;5041724;28;20506;-73
2022/06/27 10:45:29;;;;;;;10.98;6.68;;;;;;;20.86;70.67;101317.69;5059678;28;20044;-74
2022/06/27 10:47:57;;;;;;;10.70;6.78;;;;;;;20.93;68.39;101329.00;5061041;28;20036;-74
2022/06/27 10:50:28;;;;;;;15.20;6.80;;;;;;;21.00;69.28;101328.94;5061740;28;20381;-73
2022/06/27 10:53:18;;;;;;;9.82;5.30;;;;;;;20.98;69.10;101325.72;5058407;28;20467;-74
2022/06/27 10:55:44;;;;;;;11.73;6.25;;;;;;;21.00;66.25;101334.22;5061797;28;20082;-74
2022/06/27 10:58:47;;;;;;;13.10;5.80;;;;;;;20.97;67.48;101332.81;5039407;28;20759;-74
2022/06/27 11:01:15;;;;;;;11.13;5.38;;;;;;;21.10;67.27;101328.50;5007939;28;20792;-76
2022/06/27 11:03:40;;;;;;;8.30;5.05;;;;;;;21.13;66.96;101325.44;5059746;28;20036;-75
2022/06/27 11:06:08;;;;;;;9.60;5.93;;;;;;;21.25;65.07;101320.25;5063306;28;20444;-75
2022/06/27 11:08:36;;;;;;;10.32;4.97;;;;;;;21.22;66.08;101318.06;5061908;28;20107;-73
2022/06/27 11:11:03;;;;;;;7.60;4.32;;;;;;;21.30;65.87;101323.06;5060662;28;20156;-73
2022/06/27 11:13:49;;;;;;;11.32;6.63;;;;;;;21.39;64.37;101322.59;5062421;28;20040;-74
2022/06/27 11:16:17;;;;;;;8.35;4.63;;;;;;;21.41;64.85;101324.22;5041715;28;20059;-74
2022/06/27 11:18:53;;;;;;;7.28;4.25;;;;;;;21.51;64.98;101333.31;5044334;28;20639;-74
2022/06/27 11:21:23;;;;;;;11.40;5.22;;;;;;;21.67;63.94;101326.66;5040949;28;20477;-73
2022/06/27 11:23:49;;;;;;;5.95;4.13;;;;;;;21.78;62.68;101325.16;5026553;28;20055;-74
2022/06/27 11:26:15;;;;;;;12.95;7.32;;;;;;;21.79;60.58;101324.09;5041313;28;20477;-74
2022/06/27 11:34:09;;;;;;;9.90;5.53;;;;;;;22.27;62.21;101326.06;5061727;28;20436;-74
2022/06/27 11:36:36;;;;;;;8.40;4.82;;;;;;;22.37;61.99;101325.53;5061774;28;20032;-73